Hancock, New Hampshire
Current Conditions -  °F | °C
As of 2:52 AM on Saturday 20 Dec 2014 (Local Time) from KAFN Reporting Station
Clear Clear  
Wind Chill: 18°   Ceiling: Unl
Heat Index: 18°   Visibility: 10mi
Dew Point: 16°   Wind: 0mph
Humidity: 92%   Direction: NA
Pressure: 30.15"   Gusts: NA
Location:  42.97°N, 71.98°W
Report Text: KAFN 200752Z AUTO 00000KT 10SM CLR M08/M09 A3015 RMK AO2 SLP230 I1000 T10781089
Loading
Personal Weather Stations






























Interactive Weather Map New forecast layout! Learn more

10-Day Weather Forecast

Advertisements
Track Severe Weather on mobile